Time;durP1;ratioP1;P1;durP2;ratioP2;P2;SDS_P1;SDS_P2;PMS_P1;PMS_P2;Temp;Humidity;BMP_temperature;BMP_pressure;BME280_temperature;BME280_humidity;BME280_pressure;Samples;Min_cycle;Max_cycle;Signal;HPM_P1;HPM_P2
2023/07/14 00:01:24;;;;;;;8.07;3.25;;;17.30;99.90;;;;;;5071890;28;20025;-58
2023/07/14 00:03:50;;;;;;;4.15;2.10;;;17.30;99.90;;;;;;5071982;28;20451;-58
2023/07/14 00:06:17;;;;;;;3.72;2.20;;;17.30;99.90;;;;;;5071720;28;20029;-57
2023/07/14 00:08:43;;;;;;;6.55;2.15;;;17.30;99.90;;;;;;5071476;28;20029;-58
2023/07/14 00:11:17;;;;;;;7.57;2.42;;;17.30;99.90;;;;;;5071685;28;20021;-60
2023/07/14 00:13:43;;;;;;;8.80;2.28;;;17.30;99.90;;;;;;5072132;28;20067;-59
2023/07/14 00:16:21;;;;;;;6.07;2.47;;;17.20;99.90;;;;;;5071579;28;20483;-57
2023/07/14 00:18:47;;;;;;;4.93;1.83;;;17.20;99.90;;;;;;5071787;28;20032;-58
2023/07/14 00:21:22;;;;;;;8.85;2.13;;;17.20;99.90;;;;;;5071619;28;20028;-56
2023/07/14 00:23:48;;;;;;;7.00;2.13;;;17.10;99.90;;;;;;5071595;28;20036;-58
2023/07/14 00:26:17;;;;;;;6.15;2.13;;;17.10;99.90;;;;;;5071771;28;20387;-58
2023/07/14 00:28:43;;;;;;;6.43;2.55;;;17.20;99.90;;;;;;5071442;28;20043;-58
2023/07/14 00:31:15;;;;;;;14.43;2.40;;;17.10;99.90;;;;;;5071706;28;20151;-59
2023/07/14 00:33:42;;;;;;;8.90;2.30;;;17.10;99.90;;;;;;5071542;28;20013;-58
2023/07/14 00:36:08;;;;;;;5.22;2.58;;;17.00;99.90;;;;;;5071281;28;20031;-58
2023/07/14 00:38:36;;;;;;;11.70;2.38;;;17.10;99.90;;;;;;5071375;28;20033;-54
2023/07/14 00:41:07;;;;;;;5.95;2.15;;;17.00;99.90;;;;;;5071287;28;20505;-55
2023/07/14 00:43:34;;;;;;;7.63;2.50;;;17.10;99.90;;;;;;5071521;28;20056;-57
2023/07/14 00:45:59;;;;;;;6.57;2.42;;;17.10;99.90;;;;;;5071291;28;20028;-59
2023/07/14 00:48:28;;;;;;;5.53;2.47;;;17.10;99.90;;;;;;5071336;28;20483;-57
2023/07/14 00:50:56;;;;;;;7.03;2.85;;;17.10;99.90;;;;;;5071216;28;20025;-58
2023/07/14 00:53:27;;;;;;;6.40;2.28;;;17.10;99.90;;;;;;5071300;28;20049;-60
2023/07/14 00:56:00;;;;;;;6.35;2.20;;;17.10;99.90;;;;;;5071374;28;20016;-56
2023/07/14 00:58:29;;;;;;;6.97;2.40;;;17.10;99.90;;;;;;5071341;28;20029;-57
2023/07/14 01:01:13;;;;;;;9.93;2.83;;;17.00;99.90;;;;;;5071208;28;20094;-58
2023/07/14 01:03:43;;;;;;;7.45;2.55;;;17.00;99.90;;;;;;5071144;28;20542;-59
2023/07/14 01:06:16;;;;;;;8.57;3.20;;;17.00;99.90;;;;;;5071410;28;20040;-60
2023/07/14 01:08:49;;;;;;;10.07;2.85;;;16.90;99.90;;;;;;5071178;28;20029;-58
2023/07/14 01:11:18;;;;;;;15.10;2.67;;;16.90;99.90;;;;;;5071135;28;20047;-60
2023/07/14 01:13:44;;;;;;;11.80;3.30;;;16.80;99.90;;;;;;5071064;28;20024;-59
2023/07/14 01:16:14;;;;;;;10.68;2.97;;;16.70;99.90;;;;;;5071065;28;20391;-60
2023/07/14 01:18:40;;;;;;;3.80;2.10;;;16.60;99.90;;;;;;5071115;28;20108;-59
2023/07/14 01:21:07;;;;;;;8.25;2.65;;;16.50;99.90;;;;;;5071239;28;20104;-58
2023/07/14 01:23:48;;;;;;;6.97;2.45;;;16.40;99.90;;;;;;5071438;28;20024;-60
2023/07/14 01:26:51;;;;;;;6.13;2.67;;;16.30;99.90;;;;;;5071067;28;20021;-59
2023/07/14 01:29:18;;;;;;;6.38;2.40;;;16.30;99.90;;;;;;5070869;28;20086;-59
2023/07/14 01:31:44;;;;;;;6.72;2.38;;;16.30;99.90;;;;;;5071367;28;20379;-60
2023/07/14 01:34:10;;;;;;;6.95;2.17;;;16.20;99.90;;;;;;5070813;28;20017;-60
2023/07/14 01:36:36;;;;;;;3.63;2.40;;;16.20;99.90;;;;;;5071032;28;20024;-57
2023/07/14 01:39:03;;;;;;;7.57;2.85;;;16.20;99.90;;;;;;5070567;28;20056;-60
2023/07/14 01:41:29;;;;;;;7.40;2.80;;;16.20;99.90;;;;;;5071001;28;20119;-60
2023/07/14 01:44:03;;;;;;;6.75;2.47;;;16.20;99.90;;;;;;5070944;28;20057;-60
2023/07/14 01:46:28;;;;;;;6.97;2.53;;;16.10;99.90;;;;;;5071065;28;20020;-56
2023/07/14 01:48:57;;;;;;;6.07;3.03;;;16.10;99.90;;;;;;5070773;28;20039;-55
2023/07/14 01:51:24;;;;;;;3.90;2.38;;;16.10;99.90;;;;;;5070716;28;20056;-58
2023/07/14 01:54:20;;;;;;;5.45;3.08;;;16.20;99.90;;;;;;5071023;28;20051;-58
2023/07/14 01:56:46;;;;;;;8.40;2.53;;;16.20;99.90;;;;;;5070843;28;20086;-60
2023/07/14 01:59:28;;;;;;;9.10;2.60;;;16.30;99.90;;;;;;5070411;28;20028;-57
2023/07/14 02:01:56;;;;;;;5.68;2.35;;;16.20;99.90;;;;;;5070749;28;20031;-60
2023/07/14 02:04:26;;;;;;;5.38;2.50;;;16.20;99.90;;;;;;5070787;28;20086;-57
2023/07/14 02:06:53;;;;;;;6.70;2.50;;;16.20;99.90;;;;;;5070748;28;20108;-59
2023/07/14 02:09:23;;;;;;;6.63;2.20;;;16.10;99.90;;;;;;5070451;28;20033;-59
2023/07/14 02:11:52;;;;;;;11.38;2.78;;;16.00;99.90;;;;;;5070867;28;20402;-60
2023/07/14 02:14:21;;;;;;;9.18;2.50;;;16.00;99.90;;;;;;5071417;28;20020;-58
2023/07/14 02:16:48;;;;;;;5.55;2.75;;;16.00;99.90;;;;;;5074460;28;20584;-58
2023/07/14 02:19:22;;;;;;;7.43;2.65;;;16.00;99.90;;;;;;5073827;28;20055;-56
2023/07/14 02:21:49;;;;;;;7.90;3.27;;;15.90;99.90;;;;;;5074317;28;20031;-59
2023/07/14 02:24:25;;;;;;;9.55;3.00;;;15.80;99.90;;;;;;5073927;28;20406;-55
2023/07/14 02:27:02;;;;;;;6.80;2.45;;;15.80;99.90;;;;;;5074077;28;20380;-57
2023/07/14 02:29:28;;;;;;;8.90;3.13;;;15.70;99.90;;;;;;5073811;28;20391;-57
2023/07/14 02:32:14;;;;;;;6.10;2.88;;;15.70;99.90;;;;;;5073805;28;20036;-60
2023/07/14 02:34:45;;;;;;;7.43;2.78;;;15.70;99.90;;;;;;5073858;28;20063;-57
2023/07/14 02:38:00;;;;;;;6.57;2.78;;;15.60;99.90;;;;;;5073620;28;20016;-56
2023/07/14 02:40:46;;;;;;;8.30;2.63;;;15.50;99.90;;;;;;5073785;28;20024;-59
2023/07/14 02:43:15;;;;;;;7.30;2.70;;;15.40;99.90;;;;;;5073506;28;20051;-57
2023/07/14 02:45:59;;;;;;;5.00;2.50;;;15.40;99.90;;;;;;5073548;28;20025;-60
2023/07/14 02:48:34;;;;;;;7.28;2.63;;;15.30;99.90;;;;;;5073497;28;20024;-60
2023/07/14 02:51:00;;;;;;;9.60;3.33;;;15.30;99.90;;;;;;5072345;28;20036;-59
2023/07/14 02:53:25;;;;;;;10.15;2.97;;;15.20;99.90;;;;;;5073621;28;20021;-59
2023/07/14 02:55:51;;;;;;;11.80;2.88;;;15.20;99.90;;;;;;5073291;28;20024;-60
2023/07/14 02:58:17;;;;;;;7.35;3.25;;;15.20;99.90;;;;;;5073255;28;20616;-59
2023/07/14 03:00:43;;;;;;;5.75;3.58;;;15.10;99.90;;;;;;5073274;28;20025;-58
2023/07/14 03:03:09;;;;;;;8.45;2.60;;;15.10;99.90;;;;;;5073361;28;20036;-56
2023/07/14 03:05:35;;;;;;;9.85;3.85;;;15.10;99.90;;;;;;5073376;28;20024;-57
2023/07/14 03:08:01;;;;;;;6.75;3.22;;;15.10;99.90;;;;;;5073087;28;20021;-56
2023/07/14 03:10:27;;;;;;;9.02;3.72;;;15.00;99.90;;;;;;5073084;28;20154;-58
2023/07/14 03:12:53;;;;;;;6.30;2.97;;;14.90;99.90;;;;;;5073249;28;20107;-59
2023/07/14 03:15:19;;;;;;;6.53;3.08;;;14.90;99.90;;;;;;5073040;28;20394;-58
2023/07/14 03:17:46;;;;;;;12.73;3.90;;;14.80;99.90;;;;;;5071858;28;20021;-60
2023/07/14 03:20:14;;;;;;;12.73;4.00;;;14.80;99.90;;;;;;5073043;28;20027;-58
2023/07/14 03:22:39;;;;;;;13.15;3.70;;;14.70;99.90;;;;;;5073188;28;20024;-59
2023/07/14 03:25:06;;;;;;;6.10;3.00;;;14.70;99.90;;;;;;5072479;28;20039;-60
2023/07/14 03:27:32;;;;;;;8.48;3.22;;;14.70;99.90;;;;;;5072827;28;20031;-59
2023/07/14 03:29:57;;;;;;;8.35;3.72;;;14.80;99.90;;;;;;5072850;28;20032;-57
2023/07/14 03:32:23;;;;;;;7.43;2.70;;;14.80;99.90;;;;;;5072986;28;20485;-58
2023/07/14 03:34:48;;;;;;;3.80;2.63;;;14.80;99.90;;;;;;5072912;28;20707;-58
2023/07/14 03:37:14;;;;;;;10.35;3.72;;;14.70;99.90;;;;;;5072693;28;20177;-59
2023/07/14 03:39:39;;;;;;;9.07;3.15;;;14.70;99.90;;;;;;5072565;28;20442;-59
2023/07/14 03:42:05;;;;;;;4.63;3.08;;;14.60;99.90;;;;;;5072415;28;20047;-60
2023/07/14 03:44:32;;;;;;;13.40;3.45;;;14.60;99.90;;;;;;5072604;28;20071;-60
2023/07/14 03:46:58;;;;;;;12.13;3.72;;;14.60;99.90;;;;;;5072419;28;20020;-59
2023/07/14 03:49:24;;;;;;;11.93;3.35;;;14.60;99.90;;;;;;5072576;28;20025;-56
2023/07/14 03:51:51;;;;;;;6.38;2.95;;;14.60;99.90;;;;;;5072492;28;20103;-55
2023/07/14 03:57:39;;;;;;;9.68;3.47;;;14.60;99.90;;;;;;5057709;28;20020;-57
2023/07/14 04:00:12;;;;;;;7.97;3.45;;;14.60;99.90;;;;;;5051745;28;20403;-59
2023/07/14 04:02:39;;;;;;;9.63;3.30;;;14.60;99.90;;;;;;5052171;28;20029;-56
2023/07/14 04:05:07;;;;;;;10.57;3.28;;;14.60;99.90;;;;;;5051933;28;20255;-59
2023/07/14 04:07:33;;;;;;;7.25;3.10;;;14.50;99.90;;;;;;5052068;28;20025;-57
2023/07/14 04:09:59;;;;;;;8.05;3.55;;;14.50;99.90;;;;;;5051718;28;20494;-58
2023/07/14 04:12:25;;;;;;;9.52;3.75;;;14.60;99.90;;;;;;5051900;28;20029;-56
2023/07/14 04:14:50;;;;;;;9.52;4.03;;;14.60;99.90;;;;;;5051889;28;20476;-58
2023/07/14 04:17:16;;;;;;;10.10;3.33;;;14.70;99.90;;;;;;5051827;28;20036;-59
2023/07/14 04:19:41;;;;;;;7.47;3.38;;;14.80;99.90;;;;;;5051772;28;20025;-61
2023/07/14 04:22:07;;;;;;;7.00;3.28;;;14.70;99.90;;;;;;5051770;28;20033;-58
2023/07/14 04:24:33;;;;;;;11.50;3.53;;;14.70;99.90;;;;;;5051783;28;20471;-58
2023/07/14 04:26:58;;;;;;;6.82;2.92;;;14.70;99.90;;;;;;5051696;28;20029;-58
2023/07/14 04:29:23;;;;;;;8.25;3.60;;;14.70;99.90;;;;;;5051392;28;20031;-56
2023/07/14 04:31:49;;;;;;;7.85;3.55;;;14.70;99.90;;;;;;5051986;28;20029;-57
2023/07/14 04:34:14;;;;;;;7.45;3.03;;;14.80;99.90;;;;;;5051418;28;20029;-59
2023/07/14 04:36:40;;;;;;;9.18;3.75;;;14.80;99.90;;;;;;5050948;28;20104;-57
2023/07/14 04:39:09;;;;;;;5.53;2.90;;;14.90;99.90;;;;;;5051242;28;20104;-58
2023/07/14 04:41:35;;;;;;;9.18;3.08;;;14.90;99.90;;;;;;5051448;28;20591;-57
2023/07/14 04:44:06;;;;;;;15.27;3.67;;;15.00;99.90;;;;;;5051236;28;20028;-60
2023/07/14 04:46:32;;;;;;;11.15;4.25;;;15.10;99.90;;;;;;5044107;28;20028;-57
2023/07/14 04:48:57;;;;;;;12.20;4.38;;;15.20;99.90;;;;;;5051045;28;20483;-56
2023/07/14 04:51:23;;;;;;;8.32;3.85;;;15.20;99.90;;;;;;5051579;28;20154;-56
2023/07/14 04:53:48;;;;;;;10.63;3.80;;;15.30;99.90;;;;;;5051349;28;20527;-58
2023/07/14 04:56:14;;;;;;;16.63;3.85;;;15.30;99.90;;;;;;5051189;28;20471;-58
2023/07/14 04:58:40;;;;;;;10.60;3.65;;;15.30;99.90;;;;;;5051019;28;20036;-57
2023/07/14 05:01:05;;;;;;;7.47;3.83;;;15.30;99.90;;;;;;5051220;28;20040;-59
2023/07/14 05:03:31;;;;;;;6.93;2.78;;;15.30;99.90;;;;;;5051245;28;20032;-58
2023/07/14 05:05:56;;;;;;;9.27;3.80;;;15.30;99.90;;;;;;5051140;28;20066;-57
2023/07/14 05:08:22;;;;;;;6.45;3.75;;;15.30;99.90;;;;;;5051070;28;20037;-57
2023/07/14 05:10:47;;;;;;;7.65;3.33;;;15.40;99.90;;;;;;5051043;28;20029;-59
2023/07/14 05:13:13;;;;;;;11.10;4.47;;;15.40;99.90;;;;;;5051011;28;20096;-60
2023/07/14 05:15:43;;;;;;;10.35;3.80;;;15.50;99.90;;;;;;5051100;28;20025;-57
2023/07/14 05:18:08;;;;;;;8.30;3.95;;;15.50;99.90;;;;;;5050979;28;20059;-58
2023/07/14 05:20:34;;;;;;;10.35;3.50;;;15.60;99.90;;;;;;5050951;28;20048;-58
2023/07/14 05:23:00;;;;;;;6.32;3.17;;;15.70;99.90;;;;;;5051080;28;20033;-60
2023/07/14 05:25:26;;;;;;;9.23;4.00;;;15.80;99.90;;;;;;5051025;28;20056;-60
2023/07/14 05:27:51;;;;;;;8.30;3.13;;;15.90;99.90;;;;;;5050912;28;20459;-60
2023/07/14 05:30:20;;;;;;;7.03;3.40;;;16.00;99.90;;;;;;5050647;28;20033;-54
2023/07/14 05:32:47;;;;;;;11.57;4.18;;;16.10;99.90;;;;;;5051266;28;20029;-57
2023/07/14 05:35:13;;;;;;;10.63;3.42;;;16.20;99.90;;;;;;5050985;28;20053;-59
2023/07/14 05:37:39;;;;;;;6.55;3.05;;;16.30;99.90;;;;;;5051080;28;20092;-59
2023/07/14 05:40:07;;;;;;;15.63;3.10;;;16.40;99.90;;;;;;5050946;28;20029;-58
2023/07/14 05:42:33;;;;;;;12.30;3.83;;;16.40;99.90;;;;;;5051565;28;20060;-59
2023/07/14 05:44:59;;;;;;;7.07;2.83;;;16.50;99.90;;;;;;5051910;28;20032;-59
2023/07/14 05:47:25;;;;;;;9.48;2.88;;;16.60;99.90;;;;;;5051404;28;20456;-55
2023/07/14 05:49:51;;;;;;;4.85;2.63;;;16.70;99.90;;;;;;5054645;28;20024;-57
2023/07/14 05:52:17;;;;;;;6.63;2.63;;;16.80;99.90;;;;;;5054691;28;20395;-56
2023/07/14 05:54:43;;;;;;;9.13;2.53;;;16.90;99.90;;;;;;5054621;28;20017;-57
2023/07/14 05:57:08;;;;;;;7.25;2.45;;;17.00;99.90;;;;;;5054343;28;20036;-58
2023/07/14 05:59:34;;;;;;;5.65;2.28;;;17.10;99.90;;;;;;5053438;28;20495;-56
2023/07/14 06:02:00;;;;;;;5.35;2.03;;;17.20;99.90;;;;;;5054534;28;20158;-61
2023/07/14 06:04:26;;;;;;;8.00;2.63;;;17.30;99.90;;;;;;5054699;28;20395;-58
2023/07/14 06:06:52;;;;;;;7.18;2.67;;;17.40;99.90;;;;;;5062333;28;20036;-57
2023/07/14 06:09:17;;;;;;;6.15;2.40;;;17.50;99.90;;;;;;5074969;28;20101;-56
2023/07/14 06:11:43;;;;;;;5.15;2.38;;;17.50;99.90;;;;;;5074142;28;20495;-57
2023/07/14 06:14:09;;;;;;;6.93;2.63;;;17.60;99.90;;;;;;5074190;28;20103;-57
2023/07/14 06:16:35;;;;;;;7.93;2.63;;;17.70;99.90;;;;;;5074200;28;20028;-59
2023/07/14 06:19:01;;;;;;;5.15;2.20;;;17.70;99.90;;;;;;5073878;28;20106;-59
2023/07/14 06:21:26;;;;;;;5.38;2.70;;;17.90;99.90;;;;;;5074365;28;20060;-55
2023/07/14 06:23:52;;;;;;;8.18;2.03;;;18.00;99.90;;;;;;5074119;28;20028;-58
2023/07/14 06:26:18;;;;;;;10.35;2.67;;;18.00;99.90;;;;;;5073852;28;20107;-57
2023/07/14 06:28:43;;;;;;;6.10;2.05;;;18.10;99.90;;;;;;5073735;28;20028;-60
2023/07/14 06:31:12;;;;;;;5.70;1.92;;;18.30;99.90;;;;;;5074059;28;20470;-58
2023/07/14 06:33:38;;;;;;;10.35;2.63;;;18.40;99.90;;;;;;5073901;28;20033;-60
2023/07/14 06:36:04;;;;;;;7.68;2.80;;;18.50;99.90;;;;;;5073649;28;20085;-57
2023/07/14 06:38:30;;;;;;;6.80;2.95;;;18.60;99.90;;;;;;5074370;28;20078;-60
2023/07/14 06:40:56;;;;;;;7.72;2.83;;;18.70;99.90;;;;;;5073386;28;20029;-59
2023/07/14 06:43:22;;;;;;;6.78;2.75;;;18.70;99.90;;;;;;5073851;28;20613;-59
2023/07/14 06:45:48;;;;;;;5.07;2.10;;;18.80;99.90;;;;;;5073779;28;20028;-58
2023/07/14 06:48:14;;;;;;;8.18;2.05;;;18.80;99.90;;;;;;5073291;28;20028;-57
2023/07/14 06:50:39;;;;;;;2.95;1.85;;;18.90;99.90;;;;;;5073449;28;20050;-57
2023/07/14 06:53:06;;;;;;;11.35;2.50;;;19.00;99.90;;;;;;5073360;28;20016;-58
2023/07/14 06:55:31;;;;;;;6.07;2.08;;;19.20;99.90;;;;;;5073311;28;20032;-58
2023/07/14 06:57:57;;;;;;;6.57;2.25;;;19.30;99.90;;;;;;5073354;28;20033;-59
2023/07/14 07:00:22;;;;;;;8.77;1.95;;;19.40;99.90;;;;;;5072783;28;20039;-57
2023/07/14 07:02:48;;;;;;;2.90;1.90;;;19.40;99.90;;;;;;5073440;28;20398;-59
2023/07/14 07:05:13;;;;;;;9.63;2.00;;;19.50;99.90;;;;;;5073161;28;20025;-60
2023/07/14 07:07:39;;;;;;;3.92;2.00;;;19.50;99.90;;;;;;5073187;28;20028;-57
2023/07/14 07:10:06;;;;;;;3.95;1.50;;;19.50;99.90;;;;;;5072813;28;20508;-59
2023/07/14 07:12:32;;;;;;;4.40;2.05;;;19.50;99.90;;;;;;5073135;28;20544;-59
2023/07/14 07:14:57;;;;;;;5.85;2.00;;;19.60;99.90;;;;;;5073100;28;20036;-56
2023/07/14 07:17:23;;;;;;;8.60;2.72;;;19.60;99.90;;;;;;5072822;28;20033;-56
2023/07/14 07:19:49;;;;;;;9.63;3.15;;;19.70;99.90;;;;;;5072807;28;20044;-57
2023/07/14 07:22:14;;;;;;;9.52;2.20;;;19.80;99.90;;;;;;5072755;28;20027;-59
2023/07/14 07:24:40;;;;;;;5.50;1.98;;;20.00;99.90;;;;;;5072849;28;20082;-61
2023/07/14 07:27:06;;;;;;;12.57;2.53;;;20.10;99.90;;;;;;5072907;28;20024;-56
2023/07/14 07:29:31;;;;;;;5.95;2.30;;;20.20;99.90;;;;;;5072891;28;20052;-56
2023/07/14 07:31:57;;;;;;;5.95;2.03;;;20.20;99.90;;;;;;5072877;28;20457;-59
2023/07/14 07:34:23;;;;;;;7.13;2.50;;;20.30;99.90;;;;;;5072401;28;20506;-60
2023/07/14 07:36:49;;;;;;;3.67;1.67;;;20.50;99.90;;;;;;5072710;28;20028;-57
2023/07/14 07:39:15;;;;;;;8.90;2.33;;;20.60;99.90;;;;;;5072326;28;20024;-58
2023/07/14 07:41:41;;;;;;;5.28;2.30;;;20.70;99.90;;;;;;5071239;28;20039;-58
2023/07/14 07:44:08;;;;;;;5.05;2.42;;;20.80;99.90;;;;;;5072425;28;20029;-58
2023/07/14 07:46:35;;;;;;;4.40;2.25;;;20.80;99.90;;;;;;5072432;28;20024;-59
2023/07/14 07:49:01;;;;;;;9.50;2.25;;;20.80;99.90;;;;;;5072119;28;20025;-58
2023/07/14 07:51:28;;;;;;;7.78;2.40;;;20.80;99.90;;;;;;5072230;28;20216;-60
2023/07/14 07:53:54;;;;;;;7.60;2.17;;;20.90;99.90;;;;;;5072365;28;20033;-60
2023/07/14 07:56:20;;;;;;;5.70;1.77;;;21.10;99.90;;;;;;5072075;28;20016;-61
2023/07/14 07:58:46;;;;;;;8.13;2.20;;;21.20;99.90;;;;;;5071999;28;20028;-57
2023/07/14 08:01:23;;;;;;;6.07;2.30;;;21.30;99.90;;;;;;5072022;28;20155;-58
2023/07/14 08:03:51;;;;;;;6.05;2.22;;;21.40;99.90;;;;;;5072141;28;20418;-60
2023/07/14 08:06:17;;;;;;;7.32;2.05;;;21.60;99.90;;;;;;5071685;28;20100;-60
2023/07/14 08:08:43;;;;;;;12.10;1.98;;;21.70;99.90;;;;;;5071790;28;20107;-58
2023/07/14 08:11:10;;;;;;;7.20;2.05;;;21.80;99.90;;;;;;5071556;28;20104;-57
2023/07/14 08:13:36;;;;;;;9.38;2.05;;;21.90;99.90;;;;;;5071636;28;20027;-58
2023/07/14 08:16:02;;;;;;;6.00;1.75;;;21.90;99.90;;;;;;5071965;28;20107;-61
2023/07/14 08:18:29;;;;;;;5.25;1.83;;;21.90;99.90;;;;;;5072102;28;20032;-59
2023/07/14 08:20:55;;;;;;;5.72;1.92;;;22.00;99.90;;;;;;5071875;28;20544;-56
2023/07/14 08:23:22;;;;;;;7.28;1.75;;;22.10;99.90;;;;;;5071928;28;20036;-58
2023/07/14 08:25:56;;;;;;;4.60;1.52;;;22.20;99.90;;;;;;5071748;28;20028;-58
2023/07/14 08:28:22;;;;;;;6.07;2.10;;;22.30;99.90;;;;;;5071584;28;20097;-60
2023/07/14 08:30:50;;;;;;;2.83;1.63;;;22.40;99.90;;;;;;5068538;28;20039;-57
2023/07/14 08:33:17;;;;;;;5.72;1.90;;;22.40;99.90;;;;;;5059615;28;20032;-58
2023/07/14 08:35:42;;;;;;;4.90;2.40;;;22.40;99.90;;;;;;5071332;28;20020;-58
2023/07/14 08:38:08;;;;;;;7.22;1.83;;;22.40;99.90;;;;;;5071398;28;20397;-60
2023/07/14 08:40:40;;;;;;;3.00;1.50;;;22.50;99.90;;;;;;5071274;28;20067;-61
2023/07/14 08:43:47;;;;;;;5.75;1.77;;;22.60;99.90;;;;;;5069862;28;20108;-58
2023/07/14 08:46:26;;;;;;;8.25;1.42;;;22.60;99.90;;;;;;5070566;28;20483;-57
2023/07/14 08:49:09;;;;;;;6.97;1.83;;;22.60;99.90;;;;;;5071590;28;20036;-60
2023/07/14 08:51:44;;;;;;;10.13;2.00;;;22.60;99.90;;;;;;5071668;28;20104;-54
2023/07/14 08:54:18;;;;;;;5.22;2.22;;;22.60;99.90;;;;;;5071597;28;20092;-58
2023/07/14 08:56:45;;;;;;;9.65;1.85;;;22.80;99.90;;;;;;5071633;28;20036;-58
2023/07/14 08:59:17;;;;;;;5.15;1.80;;;22.80;99.90;;;;;;5071433;28;20032;-58
2023/07/14 09:01:50;;;;;;;6.57;1.88;;;22.90;99.90;;;;;;5071701;28;20040;-58
2023/07/14 09:04:23;;;;;;;5.22;1.70;;;23.00;99.90;;;;;;5071291;28;20032;-59
2023/07/14 09:06:48;;;;;;;4.75;1.67;;;23.10;99.90;;;;;;5071429;28;20052;-60
2023/07/14 09:09:18;;;;;;;7.80;2.00;;;23.20;99.90;;;;;;5070958;28;20117;-58
2023/07/14 09:11:49;;;;;;;5.47;1.52;;;23.20;99.90;;;;;;5071429;28;20095;-58
2023/07/14 09:14:32;;;;;;;5.85;1.60;;;23.10;99.90;;;;;;5071320;28;20025;-60
2023/07/14 09:17:05;;;;;;;4.82;1.95;;;23.20;99.90;;;;;;5071173;28;20063;-60
2023/07/14 09:19:52;;;;;;;5.77;2.10;;;23.20;99.90;;;;;;5071199;28;20386;-58
2023/07/14 09:22:37;;;;;;;12.55;2.28;;;23.30;99.90;;;;;;5071249;28;20513;-60
2023/07/14 09:25:11;;;;;;;6.78;1.90;;;23.40;99.90;;;;;;5075217;28;20031;-57
2023/07/14 09:27:37;;;;;;;;;;;23.50;99.90;;;;;;5075682;28;20032;-58
2023/07/14 09:30:17;;;;;;;4.57;1.95;;;23.40;99.90;;;;;;5074915;28;19994;-58
2023/07/14 09:32:51;;;;;;;5.22;1.63;;;23.50;99.90;;;;;;5075400;28;20441;-58
2023/07/14 09:35:19;;;;;;;3.80;1.77;;;23.70;99.90;;;;;;5074986;28;20150;-58
2023/07/14 09:37:51;;;;;;;8.23;1.80;;;23.80;99.90;;;;;;5074851;28;20032;-60
2023/07/14 09:40:25;;;;;;;5.80;1.73;;;24.00;99.90;;;;;;5075034;28;20028;-61
2023/07/14 09:42:54;;;;;;;6.57;1.65;;;24.00;99.90;;;;;;5074845;28;20040;-60
2023/07/14 09:45:21;;;;;;;6.15;2.03;;;24.20;99.90;;;;;;5074876;28;20025;-60
2023/07/14 09:47:51;;;;;;;10.25;2.35;;;24.20;99.90;;;;;;5074782;28;20024;-58
2023/07/14 09:50:18;;;;;;;5.15;1.83;;;24.30;99.90;;;;;;5074599;28;20021;-59
2023/07/14 09:52:56;;;;;;;4.93;1.58;;;24.30;99.90;;;;;;5074866;28;20102;-59
2023/07/14 09:55:24;;;;;;;9.82;1.40;;;24.30;99.90;;;;;;5074591;28;21529;-58
2023/07/14 09:57:56;;;;;;;4.88;2.17;;;24.40;99.90;;;;;;5074545;28;20025;-58
2023/07/14 10:00:28;;;;;;;6.50;2.15;;;24.20;99.90;;;;;;5074501;28;20114;-57
2023/07/14 10:03:05;;;;;;;3.65;1.48;;;24.40;99.90;;;;;;5074481;28;20535;-59
2023/07/14 10:05:47;;;;;;;5.13;1.80;;;24.50;99.90;;;;;;5074410;28;20020;-59
2023/07/14 10:08:27;;;;;;;4.05;1.80;;;24.70;99.90;;;;;;5074260;28;20043;-60
2023/07/14 10:10:58;;;;;;;4.63;1.88;;;25.10;99.90;;;;;;5074122;28;20077;-60
2023/07/14 10:13:27;;;;;;;3.38;1.58;;;25.40;99.90;;;;;;5074376;28;20031;-60
2023/07/14 10:16:06;;;;;;;10.80;2.13;;;25.50;99.90;;;;;;5074408;28;20063;-60
2023/07/14 10:18:44;;;;;;;7.38;2.05;;;25.80;99.90;;;;;;5074123;28;20025;-58
2023/07/14 10:21:21;;;;;;;6.75;1.48;;;26.00;99.90;;;;;;5074251;28;20031;-60
2023/07/14 10:24:04;;;;;;;6.72;2.00;;;26.10;99.90;;;;;;5074167;28;20063;-58
2023/07/14 10:26:36;;;;;;;6.20;1.60;;;25.90;99.90;;;;;;5074375;28;20021;-60
2023/07/14 10:29:06;;;;;;;4.22;1.45;;;25.90;99.90;;;;;;5073689;28;20028;-60
2023/07/14 10:32:00;;;;;;;4.25;1.50;;;25.80;99.90;;;;;;5073988;28;20431;-61
2023/07/14 10:34:51;;;;;;;5.20;1.77;;;25.80;99.90;;;;;;5072737;28;20033;-56
2023/07/14 10:37:27;;;;;;;3.97;1.80;;;25.50;99.40;;;;;;5073723;28;20061;-58
2023/07/14 10:39:56;;;;;;;10.50;2.15;;;25.60;97.80;;;;;;5073748;28;20407;-60
2023/07/14 10:42:26;;;;;;;3.50;1.88;;;25.60;97.00;;;;;;5073527;28;20040;-60
2023/07/14 10:44:53;;;;;;;9.27;2.03;;;25.60;97.20;;;;;;5073594;28;20040;-58
2023/07/14 10:47:26;;;;;;;4.60;1.95;;;25.80;96.70;;;;;;5073507;28;20025;-60
2023/07/14 10:50:16;;;;;;;4.53;1.90;;;25.80;95.50;;;;;;5073328;28;20025;-58
2023/07/14 10:52:45;;;;;;;5.53;2.33;;;25.80;95.40;;;;;;5073490;28;20027;-57
2023/07/14 10:55:23;;;;;;;3.78;1.90;;;25.80;94.90;;;;;;5073112;28;20024;-60
2023/07/14 10:57:57;;;;;;;2.55;1.50;;;26.00;94.40;;;;;;5073455;28;20036;-58
2023/07/14 11:00:35;;;;;;;4.60;2.45;;;26.10;95.20;;;;;;5073464;28;20090;-60
2023/07/14 11:03:27;;;;;;;6.10;1.92;;;26.60;94.80;;;;;;5073479;28;20028;-58
2023/07/14 11:06:03;;;;;;;6.95;2.17;;;27.20;92.10;;;;;;5073527;28;20021;-60
2023/07/14 11:08:31;;;;;;;7.80;2.42;;;27.60;92.00;;;;;;5073286;28;20052;-59
2023/07/14 11:11:06;;;;;;;3.95;2.20;;;27.70;91.60;;;;;;5073310;28;20031;-59
2023/07/14 11:13:43;;;;;;;5.50;2.13;;;27.70;89.10;;;;;;5073404;28;20052;-58
2023/07/14 11:16:38;;;;;;;5.05;2.10;;;27.80;88.50;;;;;;5073149;28;20017;-57
2023/07/14 11:19:07;;;;;;;4.93;2.30;;;27.60;90.40;;;;;;5071877;28;20116;-59
2023/07/14 11:21:51;;;;;;;3.60;2.03;;;27.30;88.80;;;;;;5073122;28;20399;-59
2023/07/14 11:24:21;;;;;;;3.38;2.15;;;27.30;91.30;;;;;;5072793;28;20028;-56
2023/07/14 11:26:57;;;;;;;4.43;2.03;;;27.30;89.30;;;;;;5073229;28;20486;-60
2023/07/14 11:29:26;;;;;;;4.75;2.60;;;27.70;87.20;;;;;;5073027;28;20097;-60
2023/07/14 11:31:55;;;;;;;4.78;2.20;;;28.10;82.20;;;;;;5072875;28;20017;-58
2023/07/14 11:34:40;;;;;;;7.68;2.15;;;28.30;80.10;;;;;;5072975;28;20032;-60
2023/07/14 11:37:34;;;;;;;4.72;2.15;;;28.40;80.90;;;;;;5074964;28;20025;-59
2023/07/14 11:40:01;;;;;;;7.72;2.90;;;28.60;76.50;;;;;;5072504;28;20034;-59
2023/07/14 11:42:32;;;;;;;7.45;2.17;;;28.50;76.70;;;;;;5072489;28;20024;-59
2023/07/14 11:45:01;;;;;;;9.32;2.38;;;28.60;78.00;;;;;;5072420;28;20016;-58
2023/07/14 11:47:37;;;;;;;4.30;2.10;;;28.70;75.80;;;;;;5072214;28;20131;-59
2023/07/14 11:50:22;;;;;;;5.38;2.53;;;28.80;76.00;;;;;;5070924;28;20024;-58
2023/07/14 11:53:09;;;;;;;3.35;1.92;;;28.50;75.50;;;;;;5072140;28;20024;-59
2023/07/14 11:55:38;;;;;;;5.25;2.53;;;28.10;75.90;;;;;;5072343;28;20013;-60
2023/07/14 11:58:30;;;;;;;6.07;2.33;;;27.80;81.00;;;;;;5072288;28;20029;-58
2023/07/14 12:01:26;;;;;;;8.45;2.30;;;27.60;81.30;;;;;;5072120;28;20428;-58
2023/07/14 12:03:55;;;;;;;6.85;2.17;;;28.10;86.20;;;;;;5072310;28;20081;-60
2023/07/14 12:06:39;;;;;;;6.05;2.50;;;28.70;83.10;;;;;;5072006;28;20021;-59
2023/07/14 12:09:05;;;;;;;;;;;29.40;76.20;;;;;;5072590;28;20025;-60
2023/07/14 12:11:40;;;;;;;3.95;2.28;;;29.10;74.30;;;;;;5072727;28;19916;-57
2023/07/14 12:14:29;;;;;;;6.50;2.08;;;29.20;77.10;;;;;;5072227;28;20026;-60
2023/07/14 12:16:55;;;;;;;5.45;2.70;;;29.60;74.90;;;;;;5072067;28;20032;-55
2023/07/14 12:19:26;;;;;;;4.93;2.70;;;29.90;70.40;;;;;;5071681;28;20024;-58
2023/07/14 12:22:07;;;;;;;4.93;2.45;;;29.90;67.50;;;;;;5072205;28;20163;-60
2023/07/14 12:24:59;;;;;;;3.58;1.70;;;29.70;68.60;;;;;;5071827;28;20024;-57
2023/07/14 12:27:35;;;;;;;5.72;2.20;;;29.90;67.50;;;;;;5071452;28;20048;-57
2023/07/14 12:30:25;;;;;;;5.30;2.10;;;29.70;71.90;;;;;;5071374;28;20025;-60
2023/07/14 12:33:01;;;;;;;6.20;2.03;;;29.20;70.00;;;;;;5072081;28;20396;-59
2023/07/14 12:35:28;;;;;;;3.08;1.90;;;29.00;72.40;;;;;;5071488;28;20063;-61
2023/07/14 12:37:53;;;;;;;2.25;1.85;;;28.80;73.30;;;;;;5070588;28;20368;-60
2023/07/14 12:40:22;;;;;;;5.10;1.90;;;28.90;70.70;;;;;;5071463;28;20027;-61
2023/07/14 12:42:50;;;;;;;5.53;1.98;;;28.80;71.90;;;;;;5071647;28;20502;-59
2023/07/14 12:45:19;;;;;;;5.00;1.95;;;29.30;70.60;;;;;;5071218;28;20404;-61
2023/07/14 12:47:52;;;;;;;5.18;1.92;;;29.60;69.60;;;;;;5071378;28;20398;-59
2023/07/14 12:50:21;;;;;;;8.50;2.70;;;29.70;69.60;;;;;;5071183;28;20111;-61
2023/07/14 12:52:48;;;;;;;7.20;2.10;;;29.40;71.80;;;;;;5071554;28;20044;-58
2023/07/14 12:55:18;;;;;;;6.68;2.15;;;29.60;69.50;;;;;;5071411;28;20021;-60
2023/07/14 12:57:45;;;;;;;5.43;2.05;;;29.50;70.20;;;;;;5070919;28;20016;-59
2023/07/14 13:00:19;;;;;;;5.13;2.22;;;29.50;71.60;;;;;;5071133;28;20044;-61
2023/07/14 13:02:46;;;;;;;3.70;1.90;;;29.40;67.40;;;;;;5071438;28;20114;-60
2023/07/14 13:05:13;;;;;;;4.93;1.60;;;29.00;68.50;;;;;;5071207;28;20028;-61